Flight Track Log - Related Links

Times and Time Zones

All times are in EDT time to prevent confusion due to time zone crossing. See the N3738B flight status page for this flight to view local times or setup timezone preferences in your user account.


Time Position Orientation Groundspeed Altitude Reporting Facility
EDT Latitude Longitude Course Direction KTS MPH feet Rate Location/Type
Thu 07:28:56 PM 39.8667 -75.2833 270° West 170 196 800  Level Philadelphia TRACON
Thu 07:31:00 PM 39.8395 -75.6190 255° West  Level FlightAware Approximate
Thu 07:31:15 PM 39.8386 -75.4697 259° West 239 275 7,200  Level New York Center
Thu 07:32:00 PM 39.8333 -75.7492 270° West  Level FlightAware Approximate
Thu 07:32:16 PM 39.8372 -75.5561 269° West 258 297 10,000  Level New York Center
Thu 07:33:00 PM 39.8176 -75.8783 258° West  Level FlightAware Approximate
Thu 07:33:16 PM 39.8383 -75.6806 271° West 299 344 10,600  Level New York Center
Thu 07:34:00 PM 39.8000 -76.0070 270° West  Level FlightAware Approximate
Thu 07:34:17 PM 39.8356 -75.7964 268° West 341 392 13,700  Level New York Center
Thu 07:35:15 PM 39.8233 -75.9308 263° West 346 398 16,500 2,571 Climbing New York Center
Thu 07:36:16 PM 39.8100 -76.0489 262° West 362 417 18,800 2,213 Climbing New York Center
Thu 07:37:17 PM 39.7933 -76.1853 261° West 374 430 21,000 1,892 Climbing New York Center
Thu 07:39:39 PM 39.6833 -76.4867 245° Southwest 386 444 25,200 1,761 Climbing Washington Center
Thu 07:40:38 PM 39.6281 -76.6181 241° Southwest 398 458 26,900 1,613 Climbing Washington Center
Thu 07:41:38 PM 39.5725 -76.7628 244° Southwest 406 467 28,400 1,835 Climbing Washington Center
Thu 07:42:39 PM 39.5319 -76.8722 244° Southwest 400 460 30,600 1,900 Climbing Washington Center
Thu 07:43:38 PM 39.4806 -76.9922 241° Southwest 395 455 32,200 1,650 Climbing Washington Center
Thu 07:44:39 PM 39.3981 -77.0819 220° Southwest 389 448 33,900 1,339 Climbing Washington Center
Thu 07:45:39 PM 39.3158 -77.1664 218° Southwest 383 441 34,900 908 Climbing Washington Center
Thu 07:46:38 PM 39.2356 -77.2503 219° Southwest 383 441 35,700 750 Climbing Washington Center
Thu 07:47:39 PM 39.1508 -77.3394 219° Southwest 388 447 36,400 645 Climbing Washington Center
Thu 07:48:39 PM 39.0642 -77.4281 218° Southwest 388 447 37,000 550 Climbing Washington Center
Thu 07:49:39 PM 38.9792 -77.5169 219° Southwest 388 447 37,500 500 Climbing Washington Center
Thu 07:50:39 PM 38.8817 -77.6156 218° Southwest 399 459 38,000 250 Climbing Washington Center
Thu 07:51:39 PM 38.7989 -77.7039 220° Southwest 396 456 38,000  Level Washington Center
Thu 07:52:39 PM 38.7056 -77.7997 219° Southwest 405 466 38,000  Level Washington Center
Thu 07:53:39 PM 38.6225 -77.8956 222° Southwest 411 473 38,000  Level Washington Center
Thu 07:54:38 PM 38.5578 -78.0078 234° Southwest 405 466 38,000  Level Washington Center
Thu 07:55:39 PM 38.4950 -78.1172 234° Southwest 400 460 38,000  Level Washington Center
Thu 07:56:39 PM 38.4278 -78.2314 233° Southwest 400 460 38,000  Level Washington Center
Thu 07:57:39 PM 38.3608 -78.3431 233° Southwest 400 460 38,000  Level Washington Center
Thu 07:58:39 PM 38.2933 -78.4542 232° Southwest 400 460 38,000  Level Washington Center
Thu 07:59:39 PM 38.2367 -78.5550 234° Southwest 406 467 38,000  Level Washington Center
Thu 08:00:39 PM 38.1628 -78.6817 233° Southwest 408 470 38,000  Level Washington Center
Thu 08:01:38 PM 38.0972 -78.7897 232° Southwest 408 470 38,000  Level Washington Center
Thu 08:02:39 PM 38.0297 -78.9003 232° Southwest 408 470 38,000  Level Washington Center
Thu 08:03:38 PM 37.9619 -79.0106 232° Southwest 408 470 38,000  Level Washington Center
Thu 08:04:39 PM 37.9028 -79.1106 233° Southwest 403 464 38,000  Level Washington Center
Thu 08:05:39 PM 37.8267 -79.2147 227° Southwest 403 464 38,000  Level Washington Center
Thu 08:06:39 PM 37.7547 -79.3164 228° Southwest 403 464 38,000  Level Washington Center
Thu 08:07:39 PM 37.6783 -79.4200 227° Southwest 403 464 38,000  Level Washington Center
Thu 08:08:38 PM 37.5953 -79.5339 227° Southwest 403 464 38,000  Level Washington Center
Thu 08:09:39 PM 37.5189 -79.6372 227° Southwest 403 464 38,000  Level Washington Center
Thu 08:11:41 PM 37.3650 -79.8481 227° Southwest 409 471 38,000  Level Atlanta Center
Thu 08:12:41 PM 37.2892 -79.9486 227° Southwest 403 464 38,000  Level Atlanta Center
Thu 08:13:41 PM 37.2133 -80.0517 227° Southwest 403 464 38,000  Level Atlanta Center
Thu 08:14:41 PM 37.1453 -80.1411 226° Southwest 403 464 38,000  Level Atlanta Center
Thu 08:15:41 PM 37.0694 -80.2436 227° Southwest 403 464 38,000  Level Atlanta Center
Thu 08:16:41 PM 36.9953 -80.3458 228° Southwest 403 464 38,000  Level Atlanta Center
Thu 08:17:41 PM 36.9231 -80.4403 226° Southwest 403 464 38,000  Level Atlanta Center
Thu 08:18:41 PM 36.8408 -80.5478 226° Southwest 403 464 38,000  Level Atlanta Center
Thu 08:19:41 PM 36.7644 -80.6494 227° Southwest 403 464 38,000  Level Atlanta Center
Thu 08:20:41 PM 36.6961 -80.7456 228° Southwest 395 455 38,000  Level Atlanta Center
Thu 08:21:41 PM 36.6214 -80.8417 226° Southwest 389 448 38,000  Level Atlanta Center
Thu 08:22:41 PM 36.5469 -80.9431 228° Southwest 389 448 38,000  Level Atlanta Center
Thu 08:23:41 PM 36.4803 -81.0308 227° Southwest 384 442 38,000  Level Atlanta Center
Thu 08:24:41 PM 36.4033 -81.1317 227° Southwest 389 448 38,000  Level Atlanta Center
Thu 08:25:41 PM 36.3306 -81.2297 227° Southwest 389 448 38,000  Level Atlanta Center
Thu 08:26:41 PM 36.2536 -81.3300 226° Southwest 389 448 38,000  Level Atlanta Center
Thu 08:27:41 PM 36.1767 -81.4306 227° Southwest 400 460 38,000  Level Atlanta Center
Thu 08:28:41 PM 36.0994 -81.5306 226° Southwest 400 460 38,000  Level Atlanta Center
Thu 08:29:41 PM 36.0222 -81.6306 226° Southwest 405 466 38,000  Level Atlanta Center
Thu 08:30:41 PM 35.9447 -81.7328 227° Southwest 405 466 38,000 -400 Level Atlanta Center
Thu 08:31:41 PM 35.8672 -81.8300 225° Southwest 405 466 37,200 -900 Descending Atlanta Center
Thu 08:32:41 PM 35.7919 -81.9317 228° Southwest 405 466 36,200 -950 Descending Atlanta Center
Thu 08:33:41 PM 35.7061 -82.0389 225° Southwest 413 475 35,300 -600 Descending Atlanta Center
Thu 08:34:41 PM 35.6283 -82.1378 226° Southwest 407 468 35,000 -200 Descending Atlanta Center
Thu 08:35:41 PM 35.5506 -82.2367 226° Southwest 406 467 34,900 -550 Descending Atlanta Center
Thu 08:36:41 PM 35.4728 -82.3353 226° Southwest 406 467 33,900 -1,000 Descending Atlanta Center
Thu 08:37:41 PM 35.3928 -82.4364 226° Southwest 406 467 32,900 -950 Descending Atlanta Center
Thu 08:38:41 PM 35.3128 -82.5372 226° Southwest 406 467 32,000 -450 Descending Atlanta Center
Thu 08:39:41 PM 35.2325 -82.6325 224° Southwest 412 474 32,000  Level Atlanta Center
Thu 08:40:41 PM 35.1522 -82.7331 226° Southwest 406 467 32,000 -450 Level Atlanta Center
Thu 08:41:41 PM 35.0719 -82.8333 226° Southwest 411 473 31,100 -950 Descending Atlanta Center
Thu 08:42:41 PM 34.9872 -82.9411 226° Southwest 416 479 30,100 -900 Descending Atlanta Center
Thu 08:43:41 PM 34.9131 -83.0306 225° Southwest 421 484 29,300 -900 Descending Atlanta Center
Thu 08:44:41 PM 34.8303 -83.1328 225° Southwest 426 490 28,300 -1,000 Descending Atlanta Center
Thu 08:45:41 PM 34.7475 -83.2375 226° Southwest 426 490 27,300 -1,000 Descending Atlanta Center
Thu 08:46:41 PM 34.6583 -83.3342 222° Southwest 431 496 26,300 -1,550 Descending Atlanta Center
Thu 08:47:41 PM 34.5650 -83.4158 216° Southwest 426 490 24,200 -2,500 Descending Atlanta Center
Thu 08:48:41 PM 34.4797 -83.4944 217° Southwest 401 461 21,300 -2,700 Descending Atlanta Center
Thu 08:49:41 PM 34.3903 -83.5756 217° Southwest 376 433 18,800 -2,200 Descending Atlanta Center
Thu 08:50:41 PM 34.3092 -83.6464 216° Southwest 363 418 16,900 -2,100 Descending Atlanta Center
Thu 08:51:41 PM 34.2281 -83.7197 217° Southwest 363 418 14,600 -2,200 Descending Atlanta Center
Thu 08:52:41 PM 34.1508 -83.7903 217° Southwest 363 418 12,500 -1,300 Descending Atlanta Center
Thu 08:53:41 PM 34.0781 -83.8533 216° Southwest 349 402 12,000 -991 Descending Atlanta Center
Thu 08:54:30 PM 34.0333 -83.9000 221° Southwest 288 331 10,700 -1,541 Descending Atlanta TRACON
Thu 08:55:30 PM 33.9667 -83.9500 212° Southwest 292 336 9,200 -850 Descending Atlanta TRACON
Thu 08:56:30 PM 33.8833 -83.9667 189° South 284 327 9,000 -143 Descending Atlanta TRACON
Thu 08:57:36 PM 33.8000 -83.9667 180° South 273 314 8,900 -321 Descending Atlanta TRACON
Thu 08:58:41 PM 33.7317 -83.9764 187° South 270 311 8,300 -720 Descending Atlanta Center
Thu 08:59:41 PM 33.6711 -83.9814 184° South 237 273 7,400 -754 Descending Atlanta Center
Thu 09:01:36 PM 33.6333 -84.0833 246° West 190 219 6,100 -729 Descending Atlanta TRACON
Thu 09:02:42 PM 33.6333 -84.1667 270° West 193 222 5,200 -818 Descending Atlanta TRACON

Login

Don't have an account? Register now (free) for customized features, flight alerts, and more!